createdAt,value
2023-05-23T00:01:09.747Z,101496.78
2023-05-23T00:03:38.206Z,101498.91
2023-05-23T00:06:08.268Z,101494.56
2023-05-23T00:08:36.120Z,101488.50
2023-05-23T00:11:03.849Z,101493.00
2023-05-23T00:13:33.578Z,101484.16
2023-05-23T00:16:02.461Z,101480.13
2023-05-23T00:18:30.619Z,101487.28
2023-05-23T00:20:59.251Z,101483.91
2023-05-23T00:23:29.770Z,101492.03
2023-05-23T00:25:58.475Z,101489.66
2023-05-23T00:28:27.198Z,101482.66
2023-05-23T00:30:54.909Z,101477.91
2023-05-23T00:33:23.758Z,101484.22
2023-05-23T00:35:51.627Z,101484.63
2023-05-23T00:38:19.433Z,101486.59
2023-05-23T00:40:49.288Z,101476.50
2023-05-23T00:43:16.996Z,101480.84
2023-05-23T00:45:44.704Z,101479.31
2023-05-23T00:48:12.808Z,101482.28
2023-05-23T00:50:40.552Z,101492.06
2023-05-23T00:53:08.305Z,101474.81
2023-05-23T00:55:36.197Z,101486.03
2023-05-23T00:58:05.648Z,101481.25
2023-05-23T01:00:34.113Z,101499.50
2023-05-23T01:03:01.947Z,101505.97
2023-05-23T01:05:30.110Z,101500.91
2023-05-23T01:07:58.058Z,101505.69
2023-05-23T01:10:28.133Z,101498.78
2023-05-23T01:13:03.513Z,101505.09
2023-05-23T01:15:38.637Z,101507.66
2023-05-23T01:18:09.653Z,101499.66
2023-05-23T01:20:41.544Z,101518.53
2023-05-23T01:23:34.669Z,101503.69
2023-05-23T01:26:13.234Z,101506.59
2023-05-23T01:28:45.439Z,101507.44
2023-05-23T01:31:13.308Z,101517.41
2023-05-23T01:33:42.173Z,101520.50
2023-05-23T01:36:10.302Z,101517.94
2023-05-23T01:38:38.025Z,101521.03
2023-05-23T01:41:05.816Z,101535.44
2023-05-23T01:43:33.689Z,101515.28
2023-05-23T01:46:03.275Z,101523.69
2023-05-23T01:48:32.357Z,101535.72
2023-05-23T01:51:00.375Z,101537.78
2023-05-23T01:53:28.776Z,101539.31
2023-05-23T01:55:56.953Z,101545.06
2023-05-23T01:58:24.688Z,101550.09
2023-05-23T02:00:52.446Z,101556.78
2023-05-23T02:03:21.660Z,101554.53
2023-05-23T02:05:49.460Z,101554.78
2023-05-23T02:08:17.246Z,101550.56
2023-05-23T02:10:45.010Z,101554.09
2023-05-23T02:13:12.819Z,101561.47
2023-05-23T02:15:41.021Z,101564.53
2023-05-23T02:18:08.924Z,101571.81
2023-05-23T02:20:38.131Z,101570.13
2023-05-23T02:23:06.444Z,101567.22
2023-05-23T02:25:34.179Z,101568.19
2023-05-23T02:28:02.050Z,101570.84
2023-05-23T02:30:29.770Z,101568.19
2023-05-23T02:32:58.292Z,101571.22
2023-05-23T02:35:26.102Z,101574.03
2023-05-23T02:37:55.212Z,101572.34
2023-05-23T02:40:22.964Z,101581.56
2023-05-23T02:42:51.743Z,101579.03
2023-05-23T02:45:19.551Z,101581.00
2023-05-23T02:47:47.289Z,101586.16
2023-05-23T02:50:15.063Z,101584.50
2023-05-23T02:52:44.161Z,101589.34
2023-05-23T02:55:13.358Z,101583.47
2023-05-23T02:57:41.403Z,101591.56
2023-05-23T03:00:11.785Z,101598.56
2023-05-23T03:02:39.605Z,101611.88
2023-05-23T03:05:08.365Z,101588.19
2023-05-23T03:07:36.679Z,101593.50
2023-05-23T03:10:04.542Z,101598.81
2023-05-23T03:12:33.630Z,101593.63
2023-05-23T03:15:01.346Z,101600.63
2023-05-23T03:17:29.054Z,101589.25
2023-05-23T03:19:56.832Z,101600.75
2023-05-23T03:22:24.523Z,101601.84
2023-05-23T03:24:52.211Z,101595.09
2023-05-23T03:27:19.905Z,101602.09
2023-05-23T03:29:49.044Z,101597.63
2023-05-23T03:32:16.743Z,101604.66
2023-05-23T03:34:44.510Z,101602.09
2023-05-23T03:37:12.328Z,101596.22
2023-05-23T03:39:40.092Z,101604.66
2023-05-23T03:42:08.469Z,101607.53
2023-05-23T03:44:36.230Z,101602.50
2023-05-23T03:47:05.882Z,101610.22
2023-05-23T03:49:33.549Z,101609.22
2023-05-23T03:52:01.232Z,101609.38
2023-05-23T03:54:28.935Z,101606.00
2023-05-23T03:56:56.884Z,101610.47
2023-05-23T03:59:24.745Z,101615.19
2023-05-23T04:01:52.434Z,101634.44
2023-05-23T04:04:22.341Z,101631.91
2023-05-23T04:06:50.007Z,101628.06
2023-05-23T04:09:17.850Z,101635.47
2023-05-23T04:11:45.623Z,101628.47
2023-05-23T04:14:14.157Z,101630.16
2023-05-23T04:16:42.655Z,101634.88
2023-05-23T04:19:10.498Z,101639.59
2023-05-23T04:21:39.600Z,101637.09
2023-05-23T04:24:08.199Z,101651.31
2023-05-23T04:26:36.591Z,101653.88
2023-05-23T04:29:06.144Z,101654.94
2023-05-23T04:31:35.314Z,101657.47
2023-05-23T04:34:03.826Z,101653.59
2023-05-23T04:36:31.569Z,101654.09
2023-05-23T04:39:00.639Z,101666.84
2023-05-23T04:41:28.433Z,101661.28
2023-05-23T04:43:58.145Z,101665.63
2023-05-23T04:46:26.794Z,101668.56
2023-05-23T04:48:55.073Z,101668.66
2023-05-23T04:51:22.918Z,101675.78
2023-05-23T04:53:51.330Z,101686.56
2023-05-23T04:56:22.346Z,101675.78
2023-05-23T04:58:50.034Z,101684.63
2023-05-23T05:01:17.832Z,101686.81
2023-05-23T05:03:45.639Z,101690.31
2023-05-23T05:06:13.419Z,101699.84
2023-05-23T05:08:41.783Z,101700.97
2023-05-23T05:11:10.670Z,101700.75
2023-05-23T05:13:39.785Z,101711.13
2023-05-23T05:16:07.924Z,101725.38
2023-05-23T05:18:36.549Z,101728.28
2023-05-23T05:21:04.565Z,101728.53
2023-05-23T05:23:33.375Z,101733.84
2023-05-23T05:26:01.609Z,101731.06
2023-05-23T05:28:29.316Z,101731.88
2023-05-23T05:30:58.959Z,101735.28
2023-05-23T05:33:28.376Z,101732.75
2023-05-23T05:35:56.230Z,101743.13
2023-05-23T05:38:23.923Z,101745.78
2023-05-23T05:40:51.626Z,101753.91
2023-05-23T05:43:19.356Z,101754.13
2023-05-23T05:45:47.064Z,101759.09
2023-05-23T05:48:16.584Z,101762.13
2023-05-23T05:50:45.353Z,101762.34
2023-05-23T05:53:13.595Z,101765.25
2023-05-23T05:55:41.312Z,101773.84
2023-05-23T05:58:08.980Z,101773.09
2023-05-23T06:00:42.131Z,101786.53
2023-05-23T06:03:10.250Z,101774.47
2023-05-23T06:05:40.046Z,101786.16
2023-05-23T06:08:07.907Z,101787.25
2023-05-23T06:10:35.654Z,101785.19
2023-05-23T06:13:03.369Z,101792.78
2023-05-23T06:15:31.189Z,101798.84
2023-05-23T06:17:59.039Z,101801.50
2023-05-23T06:20:26.804Z,101794.97
2023-05-23T06:22:55.919Z,101803.91
2023-05-23T06:25:23.634Z,101806.78
2023-05-23T06:27:51.309Z,101804.13
2023-05-23T06:30:19.112Z,101814.75
2023-05-23T06:32:46.969Z,101811.50
2023-05-23T06:35:14.850Z,101803.91
2023-05-23T06:37:45.607Z,101813.31
2023-05-23T06:40:14.800Z,101811.63
2023-05-23T06:42:42.599Z,101822.25
2023-05-23T06:45:12.453Z,101822.47
2023-05-23T06:47:43.828Z,101829.59
2023-05-23T06:50:12.246Z,101826.09
2023-05-23T06:52:39.959Z,101818.00
2023-05-23T06:55:08.522Z,101838.16
2023-05-23T06:57:37.655Z,101841.06
2023-05-23T07:00:06.653Z,101847.56
2023-05-23T07:02:34.400Z,101854.81
2023-05-23T07:05:02.367Z,101855.97
2023-05-23T07:07:30.244Z,101864.91
2023-05-23T07:09:58.044Z,101865.13
2023-05-23T07:12:25.831Z,101871.63
2023-05-23T07:14:54.995Z,101868.22
2023-05-23T07:17:22.828Z,101874.38
2023-05-23T07:19:50.738Z,101871.63
2023-05-23T07:22:18.533Z,101864.72
2023-05-23T07:24:46.311Z,101875.13
2023-05-23T07:27:14.287Z,101876.19
2023-05-23T07:29:42.198Z,101889.72
2023-05-23T07:32:11.376Z,101877.41
2023-05-23T07:34:39.081Z,101884.41
2023-05-23T07:37:07.210Z,101896.00
2023-05-23T07:39:35.819Z,101892.56
2023-05-23T07:42:03.563Z,101902.59
2023-05-23T07:44:31.269Z,101894.00
2023-05-23T07:46:59.092Z,101892.44
2023-05-23T07:49:28.302Z,101906.53
2023-05-23T07:51:56.005Z,101911.13
2023-05-23T07:54:23.796Z,101916.63
2023-05-23T07:56:51.588Z,101909.63
2023-05-23T07:59:19.337Z,101913.13
2023-05-23T08:01:50.376Z,101921.22
2023-05-23T08:04:18.664Z,101924.94
2023-05-23T08:07:04.137Z,101914.94
2023-05-23T08:09:32.714Z,101925.97
2023-05-23T08:12:00.954Z,101923.19
2023-05-23T08:14:42.279Z,101932.97
2023-05-23T08:17:16.992Z,101933.59
2023-05-23T08:19:45.009Z,101914.91
2023-05-23T08:22:14.151Z,101927.00
2023-05-23T08:24:41.987Z,101929.28
2023-05-23T08:27:09.721Z,101937.78
2023-05-23T08:29:38.432Z,101941.91
2023-05-23T08:32:06.534Z,101937.13
2023-05-23T08:34:34.426Z,101934.97
2023-05-23T08:37:02.203Z,101937.38
2023-05-23T08:39:31.365Z,101948.97
2023-05-23T08:41:59.139Z,101952.59
2023-05-23T08:44:26.928Z,101951.13
2023-05-23T08:46:55.326Z,101955.06
2023-05-23T08:49:23.907Z,101949.03
2023-05-23T08:51:53.387Z,101953.59
2023-05-23T08:54:22.376Z,101960.69
2023-05-23T08:56:52.260Z,101955.59
2023-05-23T08:59:20.930Z,101959.84
2023-05-23T09:01:49.751Z,101958.88
2023-05-23T09:04:17.498Z,101969.44
2023-05-23T09:06:45.262Z,101974.53
2023-05-23T09:09:12.997Z,101972.34
2023-05-23T09:11:40.829Z,101969.38
2023-05-23T09:14:09.934Z,101968.06
2023-05-23T09:16:37.806Z,101969.78
2023-05-23T09:19:12.041Z,101975.09
2023-05-23T09:21:44.322Z,101984.84
2023-05-23T09:24:12.153Z,101985.72
2023-05-23T09:26:40.093Z,101981.81
2023-05-23T09:29:09.262Z,101982.97
2023-05-23T09:31:37.034Z,101993.16
2023-05-23T09:34:04.986Z,101992.91
2023-05-23T09:36:35.283Z,101996.31
2023-05-23T09:39:05.716Z,101997.06
2023-05-23T09:41:34.686Z,102001.91
2023-05-23T09:44:06.838Z,102002.41
2023-05-23T09:46:37.297Z,101999.66
2023-05-23T09:49:16.283Z,102005.56
2023-05-23T09:51:44.142Z,102001.94
2023-05-23T09:54:11.900Z,102003.41
2023-05-23T09:56:43.720Z,102001.88
2023-05-23T09:59:14.100Z,102010.25
2023-05-23T10:01:44.608Z,102007.13
2023-05-23T10:04:13.015Z,101998.19
2023-05-23T10:06:43.947Z,101996.75
2023-05-23T10:09:15.923Z,102006.16
2023-05-23T10:12:17.020Z,102001.56
2023-05-23T10:14:47.017Z,101991.78
2023-05-23T10:17:20.593Z,102001.22
2023-05-23T10:19:53.338Z,102005.25
2023-05-23T10:22:21.950Z,102013.34
2023-05-23T10:24:49.705Z,102010.56
2023-05-23T10:27:17.357Z,102001.25
2023-05-23T10:29:45.849Z,102002.38
2023-05-23T10:32:15.029Z,101993.44
2023-05-23T10:34:51.255Z,102002.28
2023-05-23T10:37:22.687Z,101998.50
2023-05-23T10:39:58.684Z,101990.03
2023-05-23T10:42:36.622Z,101998.66
2023-05-23T10:45:17.790Z,102005.78
2023-05-23T10:47:45.751Z,102000.69
2023-05-23T10:50:17.134Z,102004.81
2023-05-23T10:52:45.190Z,102000.59
2023-05-23T10:55:17.879Z,102013.03
2023-05-23T10:57:46.052Z,102001.69
2023-05-23T11:00:16.315Z,102001.44
2023-05-23T11:02:49.176Z,102007.97
2023-05-23T11:05:23.162Z,102006.00
2023-05-23T11:08:10.866Z,102004.09
2023-05-23T11:11:00.031Z,102003.84
2023-05-23T11:13:28.093Z,102012.31
2023-05-23T11:15:55.815Z,102016.53
2023-05-23T11:18:24.933Z,102004.56
2023-05-23T11:20:55.611Z,102006.84
2023-05-23T11:23:24.109Z,102010.25
2023-05-23T11:25:53.873Z,102004.91
2023-05-23T11:28:21.854Z,102007.19
2023-05-23T11:30:50.406Z,102010.34
2023-05-23T11:33:18.838Z,102014.19
2023-05-23T11:35:47.856Z,102017.44
2023-05-23T11:38:17.472Z,102014.41
2023-05-23T11:40:46.849Z,102017.78
2023-05-23T11:43:16.620Z,102024.56
2023-05-23T11:45:46.856Z,102021.66
2023-05-23T11:48:16.997Z,102026.25
2023-05-23T11:50:46.957Z,102022.00
2023-05-23T11:53:18.616Z,102024.69
2023-05-23T11:55:50.503Z,102017.31
2023-05-23T11:58:18.285Z,102025.03
2023-05-23T12:00:46.305Z,102037.28
2023-05-23T12:03:14.122Z,102026.72
2023-05-23T12:05:44.519Z,102022.13
2023-05-23T12:08:13.770Z,102026.09
2023-05-23T12:10:52.549Z,102023.19
2023-05-23T12:13:20.667Z,102023.31
2023-05-23T12:15:49.786Z,102018.22
2023-05-23T12:18:21.131Z,102024.53
2023-05-23T12:21:13.506Z,102027.47
2023-05-23T12:23:41.592Z,102024.78
2023-05-23T12:26:10.181Z,102026.34
2023-05-23T13:48:23.341Z,102076.88
2023-05-23T13:50:51.199Z,102066.28
2023-05-23T13:53:18.996Z,102053.44
2023-05-23T13:55:46.848Z,102050.91
2023-05-23T13:58:14.692Z,102047.50
2023-05-23T14:00:43.183Z,102049.03
2023-05-23T14:03:11.228Z,102054.84
2023-05-23T14:05:40.575Z,102060.66
2023-05-23T14:08:08.352Z,102063.78
2023-05-23T14:10:36.254Z,102062.72
2023-05-23T14:13:04.070Z,102062.81
2023-05-23T14:15:34.396Z,102064.75
2023-05-23T14:18:02.542Z,102071.31
2023-05-23T14:20:30.625Z,102073.00
2023-05-23T14:22:59.888Z,102060.16
2023-05-23T14:25:27.743Z,102063.38
2023-05-23T14:27:55.539Z,102059.25
2023-05-23T14:30:23.278Z,102060.88
2023-05-23T14:32:51.099Z,102064.59
2023-05-23T14:35:18.906Z,102065.78
2023-05-23T14:37:47.455Z,102069.19
2023-05-23T14:40:17.276Z,102061.56
2023-05-23T14:42:45.030Z,102060.09
2023-05-23T14:45:13.048Z,102057.16
2023-05-23T14:47:40.783Z,102060.09
2023-05-23T14:50:09.649Z,102059.09
2023-05-23T14:52:37.510Z,102064.25
2023-05-23T14:55:06.142Z,102064.47
2023-05-23T14:57:35.247Z,102040.47
2023-05-23T15:00:05.316Z,102075.47
2023-05-23T15:54:44.366Z,102086.31
2023-05-23T15:57:12.121Z,102079.09
2023-05-23T15:59:40.410Z,102078.09
2023-05-23T16:02:10.218Z,102082.66
2023-05-23T16:04:38.989Z,102075.63
2023-05-23T16:07:06.868Z,102089.13
2023-05-23T16:09:34.706Z,102085.44
2023-05-23T16:12:03.816Z,102083.44
2023-05-23T16:14:32.032Z,102072.97
2023-05-23T16:17:02.849Z,102065.59
2023-05-23T16:19:30.740Z,102081.59
2023-05-23T16:21:58.896Z,102079.75
2023-05-23T16:24:28.173Z,102083.38
2023-05-23T16:26:56.149Z,102077.94
2023-05-23T16:29:25.397Z,102085.09
2023-05-23T16:31:53.211Z,102091.97
2023-05-23T16:34:21.153Z,102093.28
2023-05-23T16:36:48.859Z,102081.78
2023-05-23T16:39:16.890Z,102083.97
2023-05-23T16:41:44.622Z,102069.09
2023-05-23T16:44:12.393Z,102087.75
2023-05-23T16:46:41.693Z,102078.91
2023-05-23T16:49:09.549Z,102063.44
2023-05-23T16:51:37.249Z,102070.03
2023-05-23T16:54:05.104Z,102069.34
2023-05-23T16:56:32.798Z,102076.25
2023-05-23T16:59:00.801Z,102076.09
2023-05-23T17:01:30.425Z,102084.81
2023-05-23T17:03:59.608Z,102084.13
2023-05-23T17:06:27.341Z,102084.13
2023-05-23T17:08:55.285Z,102086.03
2023-05-23T17:11:23.247Z,102081.69
2023-05-23T17:13:50.929Z,102088.13
2023-05-23T17:16:20.252Z,102095.66
2023-05-23T17:18:48.409Z,102086.88
2023-05-23T17:21:17.559Z,102101.69
2023-05-23T17:23:46.005Z,102096.72
2023-05-23T17:26:13.931Z,102101.22
2023-05-23T17:28:42.060Z,102091.81
2023-05-23T17:31:10.678Z,102104.38
2023-05-23T17:33:38.804Z,102097.38
2023-05-23T17:36:06.755Z,102092.78
2023-05-23T17:38:35.890Z,102094.34
2023-05-23T17:41:03.796Z,102101.78
2023-05-23T17:43:31.591Z,102101.41
2023-05-23T17:45:59.474Z,102101.16
2023-05-23T17:48:38.719Z,102097.78
2023-05-23T17:51:13.225Z,102105.91
2023-05-23T17:53:42.454Z,102105.91
2023-05-23T17:56:10.381Z,102117.56
2023-05-23T17:58:40.263Z,102114.41
2023-05-23T18:01:11.580Z,102127.72
2023-05-23T18:03:39.339Z,102125.91
2023-05-23T18:06:07.367Z,102130.63
2023-05-23T18:08:35.043Z,102126.03
2023-05-23T18:11:04.203Z,102128.69
2023-05-23T18:13:31.988Z,102133.16
2023-05-23T18:15:59.736Z,102130.16
2023-05-23T18:19:42.802Z,102141.88
2023-05-23T18:22:10.917Z,102141.63
2023-05-23T18:24:38.610Z,102142.25
2023-05-23T18:27:06.772Z,102149.88
2023-05-23T18:29:34.395Z,102146.13
2023-05-23T18:32:02.228Z,102153.25
2023-05-23T18:34:30.019Z,102149.59
2023-05-23T18:36:59.170Z,102147.53
2023-05-23T18:39:27.378Z,102150.91
2023-05-23T18:41:55.117Z,102151.59
2023-05-23T18:44:23.626Z,102153.75
2023-05-23T18:46:51.417Z,102149.63
2023-05-23T18:49:19.265Z,102156.38
2023-05-23T18:51:47.648Z,102151.13
2023-05-23T18:54:17.126Z,102154.84
2023-05-23T18:56:44.883Z,102161.47
2023-05-23T18:59:14.523Z,102160.34
2023-05-23T19:01:42.263Z,102163.25
2023-05-23T19:04:10.235Z,102172.50
2023-05-23T19:06:38.100Z,102171.91
2023-05-23T19:09:09.579Z,102167.03
2023-05-23T19:11:38.839Z,102168.09
2023-05-23T19:14:06.555Z,102181.94
2023-05-23T19:16:34.461Z,102178.78
2023-05-23T19:19:02.344Z,102175.81
2023-05-23T19:21:32.045Z,102192.25
2023-05-23T19:23:59.844Z,102193.03
2023-05-23T19:26:30.075Z,102200.03
2023-05-23T19:28:59.294Z,102205.56
2023-05-23T19:31:27.166Z,102207.47
2023-05-23T19:33:54.872Z,102207.72
2023-05-23T19:36:22.755Z,102199.63
2023-05-23T19:38:53.727Z,102213.63
2023-05-23T19:41:22.388Z,102210.88
2023-05-23T19:43:51.149Z,102216.63
2023-05-23T19:46:20.294Z,102223.41
2023-05-23T19:48:48.774Z,102218.09
2023-05-23T19:51:16.518Z,102218.94
2023-05-23T19:53:44.363Z,102223.31
2023-05-23T19:56:12.530Z,102221.72
2023-05-23T19:58:40.282Z,102230.66
2023-05-23T20:01:08.161Z,102230.25
2023-05-23T20:03:37.635Z,102231.50
2023-05-23T20:06:05.923Z,102243.63
2023-05-23T20:08:33.640Z,102239.50
2023-05-23T20:11:01.442Z,102245.25
2023-05-23T20:13:29.162Z,102254.25
2023-05-23T20:15:56.948Z,102255.41
2023-05-23T20:18:24.869Z,102253.28
2023-05-23T20:20:54.350Z,102263.34
2023-05-23T20:23:22.835Z,102269.97
2023-05-23T20:25:51.682Z,102258.69
2023-05-23T20:28:19.434Z,102259.75
2023-05-23T20:30:47.321Z,102258.25
2023-05-23T20:33:15.794Z,102257.28
2023-05-23T20:35:44.360Z,102254.75
2023-05-23T20:38:13.669Z,102252.94
2023-05-23T20:40:42.013Z,102252.94
2023-05-23T20:43:10.390Z,102246.69
2023-05-23T20:45:38.071Z,102246.78
2023-05-23T20:48:06.112Z,102249.44
2023-05-23T20:50:35.625Z,102254.00
2023-05-23T20:53:03.630Z,102256.56
2023-05-23T20:55:34.925Z,102255.72
2023-05-23T20:58:02.651Z,102248.03
2023-05-23T21:00:30.491Z,102246.16
2023-05-23T21:02:58.458Z,102256.78
2023-05-23T21:05:26.440Z,102243.59
2023-05-23T21:07:54.227Z,102251.66
2023-05-23T21:10:22.278Z,102242.00
2023-05-23T21:12:51.654Z,102244.88
2023-05-23T21:15:19.847Z,102244.03
2023-05-23T21:17:47.570Z,102256.53
2023-05-23T21:20:16.167Z,102259.69
2023-05-23T21:22:43.980Z,102259.91
2023-05-23T21:25:12.109Z,102262.78
2023-05-23T21:27:39.867Z,102264.78
2023-05-23T21:30:10.589Z,102262.34
2023-05-23T21:32:38.422Z,102255.50
2023-05-23T21:35:07.189Z,102257.31
2023-05-23T21:37:35.005Z,102256.69
2023-05-23T21:40:02.844Z,102255.00
2023-05-23T21:42:30.978Z,102246.66
2023-05-23T21:44:58.792Z,102244.34
2023-05-23T21:47:28.002Z,102254.38
2023-05-23T21:49:55.986Z,102250.13
2023-05-23T21:52:23.742Z,102237.06
2023-05-23T21:54:51.749Z,102238.97
2023-05-23T21:57:19.528Z,102237.28
2023-05-23T21:59:47.256Z,102243.66
2023-05-23T22:02:15.189Z,102243.66
2023-05-23T22:04:44.845Z,102235.13
2023-05-23T22:07:12.641Z,102241.28
2023-05-23T22:09:40.632Z,102245.72
2023-05-23T22:12:08.651Z,102238.16
2023-05-23T22:14:36.452Z,102248.97
2023-05-23T22:17:04.431Z,102249.16
2023-05-23T22:19:32.250Z,102251.81
2023-05-23T22:22:01.377Z,102250.97
2023-05-23T22:24:29.243Z,102251.28
2023-05-23T22:26:58.356Z,102254.91
2023-05-23T22:29:26.301Z,102259.38
2023-05-23T22:31:54.064Z,102263.94
2023-05-23T22:34:21.823Z,102257.88
2023-05-23T22:36:49.602Z,102258.06
2023-05-23T22:39:18.825Z,102259.97
2023-05-23T22:41:46.691Z,102254.03
2023-05-23T22:44:14.414Z,102263.78
2023-05-23T22:46:43.391Z,102260.34
2023-05-23T22:49:11.304Z,102256.00
2023-05-23T22:51:39.084Z,102251.75
2023-05-23T22:54:06.919Z,102258.00
2023-05-23T22:56:36.012Z,102260.75
2023-05-23T22:59:03.718Z,102266.22
2023-05-23T23:01:31.572Z,102255.84
2023-05-23T23:03:59.392Z,102252.44
2023-05-23T23:06:27.097Z,102255.25
2023-05-23T23:08:54.833Z,102247.53
2023-05-23T23:11:22.569Z,102247.03
2023-05-23T23:13:51.618Z,102252.44
2023-05-23T23:16:21.124Z,102252.63
2023-05-23T23:18:49.061Z,102251.97
2023-05-23T23:21:16.749Z,102254.72
2023-05-23T23:23:44.525Z,102257.53
2023-05-23T23:26:12.281Z,102261.13
2023-05-23T23:28:39.968Z,102256.03
2023-05-23T23:31:09.086Z,102257.00
2023-05-23T23:33:36.790Z,102251.75
2023-05-23T23:36:04.977Z,102251.13
2023-05-23T23:38:33.075Z,102251.31
2023-05-23T23:41:00.789Z,102246.09
2023-05-23T23:43:28.550Z,102245.44
2023-05-23T23:45:56.326Z,102251.84
2023-05-23T23:48:25.446Z,102248.34
2023-05-23T23:50:53.150Z,102244.84
2023-05-23T23:53:21.873Z,102245.81
2023-05-23T23:55:49.787Z,102246.75
2023-05-23T23:58:17.806Z,102251.19
